createdAt,value
2023-11-14T00:00:29.643Z,97201.78
2023-11-14T00:02:56.056Z,97206.25
2023-11-14T00:05:22.560Z,97211.66
2023-11-14T00:07:49.099Z,97215.28
2023-11-14T00:10:17.306Z,97206.38
2023-11-14T00:12:43.711Z,97202.56
2023-11-14T00:15:10.263Z,97211.53
2023-11-14T00:17:36.819Z,97231.03
2023-11-14T00:20:03.620Z,97232.88
2023-11-14T00:22:30.132Z,97229.66
2023-11-14T00:24:56.507Z,97231.19
2023-11-14T00:27:22.956Z,97225.72
2023-11-14T00:29:49.293Z,97229.34
2023-11-14T00:32:15.710Z,97226.59
2023-11-14T00:34:42.268Z,97226.84
2023-11-14T00:37:08.628Z,97238.00
2023-11-14T00:39:35.031Z,97243.56
2023-11-14T00:42:01.393Z,97252.00
2023-11-14T00:44:27.847Z,97254.53
2023-11-14T00:46:54.428Z,97260.34
2023-11-14T00:49:20.805Z,97269.06
2023-11-14T00:51:47.155Z,97261.06
2023-11-14T00:54:13.639Z,97269.88
2023-11-14T00:56:39.989Z,97263.50
2023-11-14T00:59:06.371Z,97257.13
2023-11-14T01:01:33.012Z,97252.75
2023-11-14T01:03:59.471Z,97253.78
2023-11-14T01:06:25.866Z,97264.91
2023-11-14T01:08:54.201Z,97277.31
2023-11-14T01:11:20.825Z,97291.56
2023-11-14T01:13:47.307Z,97287.50
2023-11-14T01:16:16.031Z,97296.22
2023-11-14T01:18:42.402Z,97294.50
2023-11-14T01:21:09.180Z,97291.94
2023-11-14T01:23:35.630Z,97292.06
2023-11-14T01:26:03.077Z,97301.22
2023-11-14T01:28:29.599Z,97301.78
2023-11-14T01:30:56.030Z,97304.78
2023-11-14T01:33:22.512Z,97306.53
2023-11-14T01:35:48.989Z,97307.47
2023-11-14T01:38:15.332Z,97300.59
2023-11-14T01:40:52.512Z,97315.88
2023-11-14T01:43:19.053Z,97311.47
2023-11-14T01:45:45.457Z,97301.72
2023-11-14T01:48:12.715Z,97299.97
2023-11-14T01:50:39.539Z,97305.88
2023-11-14T01:53:06.070Z,97295.59
2023-11-14T01:55:32.659Z,97299.66
2023-11-14T01:57:59.112Z,97304.88
2023-11-14T02:00:25.992Z,97310.31
2023-11-14T02:02:53.369Z,97313.91
2023-11-14T02:05:20.533Z,97313.00
2023-11-14T02:07:47.757Z,97320.75
2023-11-14T02:10:14.169Z,97321.81
2023-11-14T02:12:40.595Z,97314.16
2023-11-14T02:15:07.740Z,97319.84
2023-11-14T02:17:34.271Z,97321.34
2023-11-14T02:20:00.807Z,97320.28
2023-11-14T02:22:27.551Z,97338.56
2023-11-14T02:24:54.315Z,97333.47
2023-11-14T02:27:20.870Z,97353.81
2023-11-14T02:29:48.660Z,97345.72
2023-11-14T02:32:15.124Z,97339.47
2023-11-14T02:34:41.482Z,97338.31
2023-11-14T02:37:07.976Z,97342.44
2023-11-14T02:39:34.386Z,97350.75
2023-11-14T02:42:00.938Z,97345.75
2023-11-14T02:44:27.469Z,97340.66
2023-11-14T02:46:54.610Z,97346.03
2023-11-14T02:49:42.758Z,97352.28
2023-11-14T02:52:09.118Z,97344.16
2023-11-14T02:54:35.532Z,97344.25
2023-11-14T02:57:01.967Z,97365.59
2023-11-14T02:59:28.305Z,97375.63
2023-11-14T03:01:54.715Z,97362.56
2023-11-14T03:04:21.060Z,97365.91
2023-11-14T03:06:47.519Z,97373.50
2023-11-14T03:09:13.875Z,97356.16
2023-11-14T03:11:40.349Z,97355.56
2023-11-14T03:14:06.753Z,97345.59
2023-11-14T03:16:33.224Z,97340.72
2023-11-14T03:18:59.654Z,97337.09
2023-11-14T03:21:26.022Z,97325.31
2023-11-14T03:23:52.381Z,97333.13
2023-11-14T03:26:18.723Z,97335.34
2023-11-14T03:28:45.155Z,97340.78
2023-11-14T03:31:11.547Z,97345.88
2023-11-14T03:33:38.341Z,97351.41
2023-11-14T03:36:05.299Z,97350.84
2023-11-14T03:38:31.713Z,97343.13
2023-11-14T03:40:58.076Z,97352.53
2023-11-14T03:43:24.583Z,97350.25
2023-11-14T03:45:50.968Z,97364.16
2023-11-14T03:48:17.359Z,97368.44
2023-11-14T03:50:43.693Z,97380.22
2023-11-14T03:53:10.144Z,97395.34
2023-11-14T03:55:36.546Z,97402.66
2023-11-14T03:58:02.922Z,97393.88
2023-11-14T04:00:29.393Z,97394.25
2023-11-14T04:02:55.893Z,97402.00
2023-11-14T04:05:22.315Z,97408.28
2023-11-14T04:07:48.823Z,97415.00
2023-11-14T04:10:15.314Z,97420.09
2023-11-14T04:12:41.787Z,97418.25
2023-11-14T04:15:08.656Z,97417.88
2023-11-14T04:17:35.182Z,97422.84
2023-11-14T04:20:01.704Z,97421.41
2023-11-14T04:22:28.090Z,97427.63
2023-11-14T04:24:54.513Z,97429.53
2023-11-14T04:27:20.964Z,97433.66
2023-11-14T04:29:47.466Z,97434.72
2023-11-14T04:32:14.003Z,97440.72
2023-11-14T04:34:40.379Z,97439.31
2023-11-14T04:37:06.711Z,97445.88
2023-11-14T04:39:33.333Z,97450.00
2023-11-14T04:41:59.836Z,97461.69
2023-11-14T04:44:26.329Z,97467.06
2023-11-14T04:46:52.854Z,97472.00
2023-11-14T04:49:19.298Z,97473.03
2023-11-14T04:51:45.629Z,97466.69
2023-11-14T04:54:12.056Z,97481.59
2023-11-14T04:56:38.401Z,97465.88
2023-11-14T04:59:04.968Z,97474.28
2023-11-14T05:01:31.425Z,97473.91
2023-11-14T05:03:57.879Z,97478.63
2023-11-14T05:06:24.240Z,97467.44
2023-11-14T05:08:50.714Z,97475.16
2023-11-14T05:11:17.208Z,97481.88
2023-11-14T05:13:44.380Z,97469.19
2023-11-14T05:16:19.206Z,97473.47
2023-11-14T05:18:49.027Z,97484.91
2023-11-14T05:21:15.391Z,97485.94
2023-11-14T05:23:41.725Z,97483.28
2023-11-14T05:26:08.484Z,97473.41
2023-11-14T05:28:38.152Z,97473.75
2023-11-14T05:31:04.558Z,97475.69
2023-11-14T05:33:31.058Z,97470.88
2023-11-14T05:35:57.426Z,97474.72
2023-11-14T05:38:23.867Z,97476.72
2023-11-14T05:40:50.381Z,97476.41
2023-11-14T05:43:17.580Z,97475.16
2023-11-14T05:45:44.326Z,97479.25
2023-11-14T05:48:10.812Z,97479.16
2023-11-14T05:50:38.333Z,97474.22
2023-11-14T05:53:04.705Z,97475.16
2023-11-14T05:55:31.063Z,97468.75
2023-11-14T05:58:01.032Z,97481.59
2023-11-14T06:00:27.388Z,97496.66
2023-11-14T06:02:54.967Z,97505.59
2023-11-14T06:05:21.283Z,97507.16
2023-11-14T06:07:47.728Z,97517.69
2023-11-14T06:10:14.063Z,97511.47
2023-11-14T06:12:40.408Z,97517.16
2023-11-14T06:15:08.052Z,97524.03
2023-11-14T06:17:34.500Z,97511.91
2023-11-14T06:20:01.028Z,97513.88
2023-11-14T06:22:27.373Z,97510.53
2023-11-14T06:24:54.082Z,97523.41
2023-11-14T06:27:20.428Z,97514.97
2023-11-14T06:29:47.255Z,97511.47
2023-11-14T06:32:13.563Z,97530.34
2023-11-14T06:34:40.277Z,97535.00
2023-11-14T06:37:06.739Z,97518.00
2023-11-14T06:39:33.150Z,97519.63
2023-11-14T06:41:59.494Z,97540.94
2023-11-14T06:44:25.810Z,97547.06
2023-11-14T06:46:53.505Z,97544.97
2023-11-14T06:49:20.144Z,97549.50
2023-11-14T06:51:46.624Z,97548.59
2023-11-14T06:54:12.968Z,97551.47
2023-11-14T06:56:39.318Z,97554.72
2023-11-14T06:59:05.820Z,97562.50
2023-11-14T07:01:32.191Z,97550.78
2023-11-14T07:04:00.294Z,97543.84
2023-11-14T07:06:26.736Z,97540.50
2023-11-14T07:08:53.897Z,97541.44
2023-11-14T07:11:20.447Z,97556.31
2023-11-14T07:13:46.804Z,97559.91
2023-11-14T07:16:13.655Z,97558.75
2023-11-14T07:18:40.930Z,97562.75
2023-11-14T07:21:07.845Z,97564.50
2023-11-14T07:23:34.181Z,97544.69
2023-11-14T07:26:00.944Z,97539.25
2023-11-14T07:28:27.418Z,97535.34
2023-11-14T07:30:53.902Z,97533.50
2023-11-14T07:33:20.247Z,97545.56
2023-11-14T07:35:46.643Z,97564.91
2023-11-14T07:38:13.138Z,97557.16
2023-11-14T07:40:39.600Z,97569.31
2023-11-14T07:43:05.965Z,97590.78
2023-11-14T07:45:32.924Z,97600.84
2023-11-14T07:47:59.811Z,97612.94
2023-11-14T07:50:26.734Z,97605.16
2023-11-14T07:52:53.134Z,97611.53
2023-11-14T07:55:20.030Z,97625.78
2023-11-14T07:57:46.380Z,97579.19
2023-11-14T08:00:14.921Z,97580.22
2023-11-14T08:02:42.710Z,97569.56
2023-11-14T08:05:09.871Z,97572.13
2023-11-14T08:07:36.619Z,97587.66
2023-11-14T08:10:03.124Z,97595.44
2023-11-14T08:12:29.472Z,97573.84
2023-11-14T08:14:55.862Z,97564.44
2023-11-14T08:17:22.246Z,97551.78
2023-11-14T08:19:48.714Z,97550.03
2023-11-14T08:22:15.114Z,97559.09
2023-11-14T08:24:41.465Z,97557.56
2023-11-14T08:27:08.665Z,97575.66
2023-11-14T08:29:37.888Z,97586.13
2023-11-14T08:32:04.583Z,97599.94
2023-11-14T08:34:31.316Z,97598.06
2023-11-14T08:36:57.704Z,97632.63
2023-11-14T08:39:26.699Z,97650.84
2023-11-14T08:41:54.003Z,97640.19
2023-11-14T08:44:20.394Z,97619.03
2023-11-14T08:46:46.840Z,97616.91
2023-11-14T08:49:13.429Z,97635.75
2023-11-14T08:51:39.920Z,97653.38
2023-11-14T08:54:06.532Z,97656.16
2023-11-14T08:56:32.910Z,97667.22
2023-11-14T08:58:59.296Z,97661.97
2023-11-14T09:01:25.753Z,97659.75
2023-11-14T09:03:52.564Z,97663.94
2023-11-14T09:06:18.911Z,97657.19
2023-11-14T09:08:45.267Z,97653.00
2023-11-14T09:11:12.648Z,97647.78
2023-11-14T09:13:39.096Z,97643.16
2023-11-14T09:16:06.440Z,97631.75
2023-11-14T09:18:32.884Z,97610.28
2023-11-14T09:20:59.315Z,97602.16
2023-11-14T09:23:26.154Z,97588.66
2023-11-14T09:25:52.521Z,97594.28
2023-11-14T09:28:21.255Z,97583.22
2023-11-14T09:30:48.520Z,97585.19
2023-11-14T09:33:14.894Z,97592.00
2023-11-14T09:35:41.633Z,97587.78
2023-11-14T09:38:08.895Z,97597.66
2023-11-14T09:40:35.400Z,97594.84
2023-11-14T09:43:02.275Z,97585.09
2023-11-14T09:45:28.786Z,97599.88
2023-11-14T09:47:55.517Z,97606.38
2023-11-14T09:50:23.078Z,97601.91
2023-11-14T09:52:53.072Z,97592.03
2023-11-14T09:55:19.551Z,97602.00
2023-11-14T10:00:14.751Z,97620.66
2023-11-14T10:02:41.331Z,97611.34
2023-11-14T10:05:14.573Z,97605.09
2023-11-14T10:07:44.141Z,97599.81
2023-11-14T10:10:14.820Z,97584.41
2023-11-14T10:12:41.370Z,97596.31
2023-11-14T10:15:10.369Z,97593.63
2023-11-14T10:17:55.178Z,97584.63
2023-11-14T10:20:26.299Z,97574.09
2023-11-14T10:23:04.124Z,97578.81
2023-11-14T10:25:34.247Z,97599.06
2023-11-14T10:28:05.878Z,97600.03
2023-11-14T10:30:45.281Z,97602.78
2023-11-14T10:33:13.324Z,97572.19
2023-11-14T10:35:42.709Z,97561.03
2023-11-14T10:38:23.841Z,97573.47
2023-11-14T10:40:53.520Z,97570.03
2023-11-14T10:43:26.744Z,97597.56
2023-11-14T10:45:54.093Z,97594.94
2023-11-14T10:48:25.066Z,97603.97
2023-11-14T10:50:52.431Z,97599.41
2023-11-14T10:53:19.391Z,97608.75
2023-11-14T10:55:50.790Z,97581.25
2023-11-14T10:58:19.051Z,97569.41
2023-11-14T11:00:45.509Z,97581.16
2023-11-14T11:03:14.877Z,97568.03
2023-11-14T11:05:42.124Z,97577.59
2023-11-14T11:08:08.578Z,97577.59
2023-11-14T11:10:36.425Z,97573.88
2023-11-14T11:13:15.224Z,97571.34
2023-11-14T11:15:47.146Z,97586.09
2023-11-14T11:18:14.327Z,97587.31
2023-11-14T11:20:41.128Z,97582.94
2023-11-14T11:23:10.301Z,97578.09
2023-11-14T11:25:38.334Z,97578.81
2023-11-14T11:28:19.762Z,97563.03
2023-11-14T11:31:11.832Z,97562.84
2023-11-14T11:33:39.906Z,97562.03
2023-11-14T11:36:21.449Z,97550.78
2023-11-14T11:38:58.807Z,97551.19
2023-11-14T11:41:29.974Z,97540.56
2023-11-14T11:44:12.640Z,97535.38
2023-11-14T11:46:41.329Z,97534.88
2023-11-14T11:49:10.656Z,97527.53
2023-11-14T11:51:39.073Z,97511.56
2023-11-14T11:54:28.305Z,97497.31
2023-11-14T11:57:06.776Z,97495.25
2023-11-14T11:59:45.130Z,97487.63
2023-11-14T12:02:15.748Z,97481.47
2023-11-14T12:04:42.317Z,97486.78
2023-11-14T12:07:09.123Z,97487.91
2023-11-14T12:09:38.963Z,97475.78
2023-11-14T12:12:05.742Z,97461.09
2023-11-14T12:14:32.665Z,97455.88
2023-11-14T12:16:59.527Z,97440.91
2023-11-14T12:19:26.833Z,97441.72
2023-11-14T12:21:55.357Z,97446.84
2023-11-14T12:24:21.769Z,97443.22
2023-11-14T12:26:48.222Z,97460.19
2023-11-14T12:29:15.996Z,97452.84
2023-11-14T12:31:53.426Z,97452.09
2023-11-14T12:34:29.963Z,97454.06
2023-11-14T12:37:11.329Z,97444.78
2023-11-14T12:39:38.379Z,97440.75
2023-11-14T12:42:05.279Z,97444.00
2023-11-14T12:44:34.316Z,97441.97
2023-11-14T12:47:00.780Z,97446.50
2023-11-14T12:49:27.186Z,97444.06
2023-11-14T12:51:54.465Z,97437.84
2023-11-14T12:54:24.871Z,97429.44
2023-11-14T12:56:53.063Z,97433.19
2023-11-14T12:59:20.277Z,97421.25
2023-11-14T13:01:49.230Z,97418.56
2023-11-14T13:04:15.969Z,97415.59
2023-11-14T13:06:47.238Z,97410.03
2023-11-14T13:09:16.272Z,97411.59
2023-11-14T13:11:43.257Z,97422.81
2023-11-14T13:14:10.510Z,97412.41
2023-11-14T13:16:36.987Z,97414.31
2023-11-14T13:19:03.965Z,97412.94
2023-11-14T13:21:30.541Z,97404.16
2023-11-14T13:23:57.342Z,97392.16
2023-11-14T13:26:23.887Z,97395.94
2023-11-14T13:28:50.719Z,97386.81
2023-11-14T13:31:17.987Z,97383.53
2023-11-14T13:33:45.092Z,97394.09
2023-11-14T13:36:11.488Z,97404.25
2023-11-14T13:38:38.425Z,97392.66
2023-11-14T13:41:16.103Z,97394.19
2023-11-14T13:43:43.317Z,97405.75
2023-11-14T13:46:20.657Z,97382.16
2023-11-14T13:48:53.455Z,97375.19
2023-11-14T13:51:19.912Z,97371.72
2023-11-14T13:53:46.296Z,97374.59
2023-11-14T13:56:12.822Z,97372.91
2023-11-14T13:58:39.289Z,97368.34
2023-11-14T14:01:06.232Z,97381.47
2023-11-14T14:03:33.116Z,97364.25
2023-11-14T14:06:01.026Z,97366.13
2023-11-14T14:08:27.788Z,97360.47
2023-11-14T14:10:54.142Z,97349.47
2023-11-14T14:13:20.544Z,97344.38
2023-11-14T14:15:47.191Z,97344.13
2023-11-14T14:18:13.868Z,97339.38
2023-11-14T14:20:40.569Z,97335.94
2023-11-14T14:23:06.950Z,97340.78
2023-11-14T14:25:33.798Z,97343.97
2023-11-14T14:28:00.178Z,97361.78
2023-11-14T14:30:27.804Z,97358.34
2023-11-14T14:32:54.182Z,97357.78
2023-11-14T14:35:20.847Z,97355.78
2023-11-14T14:37:47.216Z,97356.28
2023-11-14T14:40:13.818Z,97355.50
2023-11-14T14:42:40.171Z,97366.69
2023-11-14T14:45:10.849Z,97361.78
2023-11-14T14:47:37.936Z,97374.34
2023-11-14T14:50:05.740Z,97370.81
2023-11-14T14:52:32.822Z,97372.63
2023-11-14T14:54:59.428Z,97375.56
2023-11-14T14:57:25.761Z,97367.97
2023-11-14T14:59:52.120Z,97366.59
2023-11-14T15:02:18.534Z,97379.16
2023-11-14T15:04:44.892Z,97371.84
2023-11-14T15:07:11.638Z,97354.31
2023-11-14T15:09:37.970Z,97346.00
2023-11-14T15:12:05.236Z,97343.50
2023-11-14T15:14:33.073Z,97340.91
2023-11-14T15:16:59.720Z,97323.25
2023-11-14T15:19:26.068Z,97321.63
2023-11-14T15:21:52.422Z,97319.13
2023-11-14T15:24:18.783Z,97317.28
2023-11-14T15:26:45.106Z,97311.94
2023-11-14T15:29:11.461Z,97316.72
2023-11-14T15:31:37.831Z,97312.66
2023-11-14T15:34:04.292Z,97322.69
2023-11-14T15:36:31.661Z,97315.91
2023-11-14T15:38:58.593Z,97329.75
2023-11-14T15:41:25.514Z,97329.19
2023-11-14T15:43:52.012Z,97322.38
2023-11-14T15:46:18.461Z,97323.91
2023-11-14T15:48:45.116Z,97319.31
2023-11-14T15:51:11.458Z,97314.22
2023-11-14T15:53:37.806Z,97317.94
2023-11-14T15:56:04.664Z,97308.56
2023-11-14T15:58:31.409Z,97317.88
2023-11-14T16:00:58.169Z,97311.16
2023-11-14T16:03:24.922Z,97294.28
2023-11-14T16:05:51.415Z,97298.25
2023-11-14T16:08:17.858Z,97293.16
2023-11-14T16:10:44.227Z,97282.66
2023-11-14T16:13:10.763Z,97286.69
2023-11-14T16:15:37.108Z,97284.28
2023-11-14T16:18:03.600Z,97285.09
2023-11-14T16:20:30.038Z,97276.28
2023-11-14T16:22:56.438Z,97276.75
2023-11-14T16:25:23.171Z,97271.19
2023-11-14T16:27:49.605Z,97279.91
2023-11-14T16:30:16.065Z,97272.72
2023-11-14T16:32:42.487Z,97254.03
2023-11-14T16:35:09.140Z,97262.34
2023-11-14T16:37:36.414Z,97278.63
2023-11-14T16:40:02.815Z,97270.78
2023-11-14T16:42:29.211Z,97266.75
2023-11-14T16:44:55.693Z,97263.03
2023-11-14T16:47:22.069Z,97245.94
2023-11-14T16:49:48.450Z,97242.78
2023-11-14T16:52:14.789Z,97246.03
2023-11-14T16:54:43.999Z,97236.41
2023-11-14T16:57:10.655Z,97245.94
2023-11-14T16:59:37.022Z,97242.38
2023-11-14T17:02:03.430Z,97222.34
2023-11-14T17:04:29.841Z,97221.75
2023-11-14T17:06:56.496Z,97213.19
2023-11-14T17:09:22.882Z,97218.44
2023-11-14T17:11:49.300Z,97211.16
2023-11-14T17:14:15.670Z,97196.22
2023-11-14T17:16:42.075Z,97195.09
2023-11-14T17:19:08.431Z,97202.28
2023-11-14T17:21:34.815Z,97198.00
2023-11-14T17:24:01.439Z,97204.94
2023-11-14T17:26:28.064Z,97220.72
2023-11-14T17:28:54.462Z,97221.50
2023-11-14T17:31:20.789Z,97221.75
2023-11-14T17:33:47.089Z,97218.22
2023-11-14T17:36:13.505Z,97223.44
2023-11-14T17:38:39.941Z,97218.34
2023-11-14T17:41:06.714Z,97203.06
2023-11-14T17:43:33.083Z,97214.22
2023-11-14T17:45:59.546Z,97196.03
2023-11-14T17:48:26.043Z,97212.41
2023-11-14T17:50:52.541Z,97190.41
2023-11-14T17:53:19.051Z,97180.00
2023-11-14T17:55:45.554Z,97181.28
2023-11-14T17:58:11.976Z,97167.31
2023-11-14T18:00:38.510Z,97179.69
2023-11-14T18:03:05.114Z,97180.72
2023-11-14T18:05:31.996Z,97178.56
2023-11-14T18:07:58.488Z,97191.47
2023-11-14T18:10:24.820Z,97188.47
2023-11-14T18:12:51.348Z,97187.19
2023-11-14T18:15:18.618Z,97186.06
2023-11-14T18:17:45.323Z,97177.97
2023-11-14T18:20:12.516Z,97173.13
2023-11-14T18:22:39.031Z,97163.19
2023-11-14T18:25:05.581Z,97165.16
2023-11-14T18:27:31.920Z,97170.25
2023-11-14T18:29:58.429Z,97184.03
2023-11-14T18:32:24.864Z,97184.50
2023-11-14T18:34:52.824Z,97176.75
2023-11-14T18:37:19.160Z,97178.28
2023-11-14T18:39:45.731Z,97183.84
2023-11-14T18:42:12.075Z,97185.69
2023-11-14T18:44:38.648Z,97193.22
2023-11-14T18:47:07.825Z,97197.38
2023-11-14T18:49:34.535Z,97190.91
2023-11-14T18:52:00.928Z,97186.63
2023-11-14T18:54:27.730Z,97182.34
2023-11-14T18:56:54.116Z,97188.50
2023-11-14T18:59:20.579Z,97188.72
2023-11-14T19:01:47.013Z,97182.59
2023-11-14T19:04:14.882Z,97177.13
2023-11-14T19:06:41.335Z,97184.88
2023-11-14T19:09:07.699Z,97174.59
2023-11-14T19:11:34.119Z,97171.47
2023-11-14T19:14:03.999Z,97155.97
2023-11-14T19:16:31.188Z,97124.47
2023-11-14T19:18:57.701Z,97141.16
2023-11-14T19:21:43.772Z,97149.84
2023-11-14T19:24:11.530Z,97155.19
2023-11-14T19:26:38.269Z,97154.13
2023-11-14T19:29:04.962Z,97152.03
2023-11-14T19:31:31.687Z,97139.78
2023-11-14T19:33:58.038Z,97139.78
2023-11-14T19:36:24.398Z,97127.03
2023-11-14T19:38:51.049Z,97126.00
2023-11-14T19:41:17.576Z,97137.44
2023-11-14T19:43:45.018Z,97133.41
2023-11-14T19:46:12.440Z,97119.06
2023-11-14T19:48:39.231Z,97120.69
2023-11-14T19:51:05.686Z,97103.09
2023-11-14T19:53:34.042Z,97101.47
2023-11-14T19:56:00.663Z,97104.72
2023-11-14T19:58:27.007Z,97102.63
2023-11-14T20:00:53.471Z,97100.28
2023-11-14T20:03:20.171Z,97107.00
2023-11-14T20:05:46.682Z,97088.16
2023-11-14T20:08:14.238Z,97086.84
2023-11-14T20:10:40.530Z,97080.41
2023-11-14T20:13:06.906Z,97079.59
2023-11-14T20:15:33.322Z,97077.50
2023-11-14T20:17:59.860Z,97078.66
2023-11-14T20:20:26.274Z,97079.63
2023-11-14T20:22:53.053Z,97077.91
2023-11-14T20:25:19.872Z,97077.66
2023-11-14T20:27:46.922Z,97075.25
2023-11-14T20:30:13.634Z,97072.00
2023-11-14T20:32:40.053Z,97076.06
2023-11-14T20:35:06.727Z,97074.44
2023-11-14T20:37:33.559Z,97078.72
2023-11-14T20:40:00.308Z,97071.28
2023-11-14T20:42:26.684Z,97075.56
2023-11-14T20:44:53.105Z,97079.75
2023-11-14T20:47:19.498Z,97068.06
2023-11-14T20:49:45.917Z,97082.66
2023-11-14T20:52:12.276Z,97085.56
2023-11-14T20:54:38.634Z,97085.66
2023-11-14T20:57:05.355Z,97100.34
2023-11-14T20:59:32.094Z,97092.13
2023-11-14T21:01:58.488Z,97101.47
2023-11-14T21:04:25.186Z,97081.78
2023-11-14T21:06:51.748Z,97087.94
2023-11-14T21:09:18.712Z,97100.53
2023-11-14T21:11:46.466Z,97095.78
2023-11-14T21:14:13.300Z,97096.00
2023-11-14T21:16:39.852Z,97088.94
2023-11-14T21:19:06.280Z,97094.75
2023-11-14T21:21:32.699Z,97086.53
2023-11-14T21:23:59.204Z,97093.00
2023-11-14T21:26:26.083Z,97096.69
2023-11-14T21:28:52.509Z,97096.94
2023-11-14T21:31:18.933Z,97105.50
2023-11-14T21:33:45.318Z,97091.94
2023-11-14T21:36:12.138Z,97092.59
2023-11-14T21:38:39.052Z,97091.00
2023-11-14T21:41:05.684Z,97094.78
2023-11-14T21:43:32.126Z,97088.19
2023-11-14T21:45:58.958Z,97091.41
2023-11-14T21:48:25.454Z,97098.56
2023-11-14T21:50:51.936Z,97087.19
2023-11-14T21:53:18.380Z,97089.84
2023-11-14T21:55:44.873Z,97104.53
2023-11-14T21:58:11.800Z,97098.72
2023-11-14T22:00:38.215Z,97105.44
2023-11-14T22:03:04.736Z,97107.72
2023-11-14T22:05:31.668Z,97100.63
2023-11-14T22:07:58.008Z,97101.19
2023-11-14T22:10:24.382Z,97102.06
2023-11-14T22:12:50.813Z,97099.97
2023-11-14T22:15:17.149Z,97108.91
2023-11-14T22:17:43.601Z,97104.25
2023-11-14T22:20:10.324Z,97111.75
2023-11-14T22:22:36.783Z,97114.16
2023-11-14T22:25:03.226Z,97119.56
2023-11-14T22:27:29.655Z,97127.44
2023-11-14T22:29:56.022Z,97112.25
2023-11-14T22:32:22.709Z,97109.66
2023-11-14T22:34:49.055Z,97129.69
2023-11-14T22:37:15.403Z,97131.06
2023-11-14T22:39:41.731Z,97115.00
2023-11-14T22:42:08.074Z,97130.44
2023-11-14T22:44:34.491Z,97140.22
2023-11-14T22:47:00.899Z,97139.63
2023-11-14T22:49:27.316Z,97151.44
2023-11-14T22:51:53.945Z,97149.91
2023-11-14T22:54:20.349Z,97155.47
2023-11-14T22:56:46.828Z,97153.78
2023-11-14T22:59:13.198Z,97163.88
2023-11-14T23:01:39.627Z,97155.88
2023-11-14T23:04:07.113Z,97153.53
2023-11-14T23:06:33.420Z,97142.22
2023-11-14T23:08:59.782Z,97163.63
2023-11-14T23:11:26.205Z,97154.50
2023-11-14T23:13:53.924Z,97175.19
2023-11-14T23:16:20.454Z,97167.03
2023-11-14T23:18:47.026Z,97172.88
2023-11-14T23:21:13.382Z,97186.66
2023-11-14T23:23:39.842Z,97185.44
2023-11-14T23:26:06.259Z,97198.81
2023-11-14T23:28:32.890Z,97208.41
2023-11-14T23:30:59.331Z,97184.66
2023-11-14T23:33:25.774Z,97198.88
2023-11-14T23:35:52.128Z,97199.13
2023-11-14T23:38:19.595Z,97213.34
2023-11-14T23:40:46.010Z,97211.72
2023-11-14T23:43:12.677Z,97207.03
2023-11-14T23:45:39.173Z,97211.56
2023-11-14T23:48:05.814Z,97213.41
2023-11-14T23:50:32.366Z,97222.47
2023-11-14T23:52:58.915Z,97228.63
2023-11-14T23:55:25.781Z,97219.25
2023-11-14T23:57:52.179Z,97219.50
